sensor_id;sensor_type;location;lat;lon;timestamp;pressure;altitude;pressure_sealevel;temperature;humidity
21960;BME280;11144;43.030;25.108;2023-01-28T00:00:35;98777.34;;;2.30;100.00
21960;BME280;11144;43.030;25.108;2023-01-28T00:02:08;98777.34;;;2.30;100.00
21960;BME280;11144;43.030;25.108;2023-01-28T00:03:41;98775.66;;;2.29;100.00
21960;BME280;11144;43.030;25.108;2023-01-28T00:05:14;98779.09;;;2.31;100.00
21960;BME280;11144;43.030;25.108;2023-01-28T00:06:47;98775.66;;;2.29;100.00
21960;BME280;11144;43.030;25.108;2023-01-28T00:08:21;98788.69;;;2.29;100.00
21960;BME280;11144;43.030;25.108;2023-01-28T00:09:54;98775.69;;;2.26;100.00
21960;BME280;11144;43.030;25.108;2023-01-28T00:11:27;98777.47;;;2.21;100.00
21960;BME280;11144;43.030;25.108;2023-01-28T00:13:02;98786.13;;;2.23;100.00
21960;BME280;11144;43.030;25.108;2023-01-28T00:14:35;98773.97;;;2.25;100.00
21960;BME280;11144;43.030;25.108;2023-01-28T00:16:08;98790.41;;;2.28;100.00
21960;BME280;11144;43.030;25.108;2023-01-28T00:17:42;98783.44;;;2.32;100.00
21960;BME280;11144;43.030;25.108;2023-01-28T00:19:15;98786.03;;;2.32;100.00
21960;BME280;11144;43.030;25.108;2023-01-28T00:20:55;98783.44;;;2.30;100.00
21960;BME280;11144;43.030;25.108;2023-01-28T00:22:28;98787.78;;;2.30;100.00
21960;BME280;11144;43.030;25.108;2023-01-28T00:24:01;98787.78;;;2.30;100.00
21960;BME280;11144;43.030;25.108;2023-01-28T00:25:34;98791.28;;;2.29;100.00
21960;BME280;11144;43.030;25.108;2023-01-28T00:27:08;98788.66;;;2.32;100.00
21960;BME280;11144;43.030;25.108;2023-01-28T00:28:43;98786.03;;;2.32;100.00
21960;BME280;11144;43.030;25.108;2023-01-28T00:30:16;98790.34;;;2.36;100.00
21960;BME280;11144;43.030;25.108;2023-01-28T00:31:50;98794.63;;;2.40;100.00
21960;BME280;11144;43.030;25.108;2023-01-28T00:33:23;98789.38;;;2.43;100.00
21960;BME280;11144;43.030;25.108;2023-01-28T00:34:56;98796.34;;;2.42;100.00
21960;BME280;11144;43.030;25.108;2023-01-28T00:36:29;98792.88;;;2.42;100.00
21960;BME280;11144;43.030;25.108;2023-01-28T00:38:03;98792.88;;;2.42;100.00
21960;BME280;11144;43.030;25.108;2023-01-28T00:39:36;98796.31;;;2.44;100.00
21960;BME280;11144;43.030;25.108;2023-01-28T00:41:11;98802.44;;;2.43;100.00
21960;BME280;11144;43.030;25.108;2023-01-28T00:42:45;98800.72;;;2.42;100.00
21960;BME280;11144;43.030;25.108;2023-01-28T00:44:20;98796.38;;;2.38;100.00
21960;BME280;11144;43.030;25.108;2023-01-28T00:45:53;98806.78;;;2.41;100.00
21960;BME280;11144;43.030;25.108;2023-01-28T00:47:26;98806.75;;;2.44;100.00
21960;BME280;11144;43.030;25.108;2023-01-28T00:49:00;98798.09;;;2.42;100.00
21960;BME280;11144;43.030;25.108;2023-01-28T00:50:33;98807.66;;;2.40;100.00
21960;BME280;11144;43.030;25.108;2023-01-28T00:52:06;98799.88;;;2.37;100.00
21960;BME280;11144;43.030;25.108;2023-01-28T00:53:41;98789.47;;;2.34;100.00
21960;BME280;11144;43.030;25.108;2023-01-28T00:55:15;98805.94;;;2.39;100.00
21960;BME280;11144;43.030;25.108;2023-01-28T00:56:48;98810.28;;;2.40;100.00
21960;BME280;11144;43.030;25.108;2023-01-28T00:58:24;98805.06;;;2.40;100.00
21960;BME280;11144;43.030;25.108;2023-01-28T00:59:58;98805.94;;;2.39;100.00
21960;BME280;11144;43.030;25.108;2023-01-28T01:01:32;98804.13;;;2.44;100.00
21960;BME280;11144;43.030;25.108;2023-01-28T01:03:05;98810.25;;;2.43;100.00
21960;BME280;11144;43.030;25.108;2023-01-28T01:04:39;98810.25;;;2.43;100.00
21960;BME280;11144;43.030;25.108;2023-01-28T01:06:14;98806.78;;;2.41;100.00
21960;BME280;11144;43.030;25.108;2023-01-28T01:07:47;98807.66;;;2.41;100.00
21960;BME280;11144;43.030;25.108;2023-01-28T01:09:21;98804.16;;;2.42;100.00
21960;BME280;11144;43.030;25.108;2023-01-28T01:10:57;98808.53;;;2.42;100.00
21960;BME280;11144;43.030;25.108;2023-01-28T01:12:31;98805.84;;;2.45;100.00
21960;BME280;11144;43.030;25.108;2023-01-28T01:14:05;98805.00;;;2.46;100.00
21960;BME280;11144;43.030;25.108;2023-01-28T01:15:40;98808.63;;;2.33;100.00
21960;BME280;11144;43.030;25.108;2023-01-28T01:17:12;98805.19;;;2.31;100.00
21960;BME280;11144;43.030;25.108;2023-01-28T01:18:45;98811.22;;;2.34;100.00
21960;BME280;11144;43.030;25.108;2023-01-28T01:20:21;98802.50;;;2.34;100.00
21960;BME280;11144;43.030;25.108;2023-01-28T01:21:56;98804.25;;;2.35;100.00
21960;BME280;11144;43.030;25.108;2023-01-28T01:23:29;98809.47;;;2.35;100.00
21960;BME280;11144;43.030;25.108;2023-01-28T01:25:04;98821.63;;;2.37;100.00
21960;BME280;11144;43.030;25.108;2023-01-28T01:26:37;98813.84;;;2.33;100.00
21960;BME280;11144;43.030;25.108;2023-01-28T01:28:11;98820.75;;;2.37;100.00
21960;BME280;11144;43.030;25.108;2023-01-28T01:29:43;98819.84;;;2.39;100.00
21960;BME280;11144;43.030;25.108;2023-01-28T01:31:20;98817.34;;;2.32;100.00
21960;BME280;11144;43.030;25.108;2023-01-28T01:32:53;98808.69;;;2.27;100.00
21960;BME280;11144;43.030;25.108;2023-01-28T01:34:26;98815.66;;;2.28;100.00
21960;BME280;11144;43.030;25.108;2023-01-28T01:35:59;98814.81;;;2.21;100.00
21960;BME280;11144;43.030;25.108;2023-01-28T01:37:32;98803.63;;;2.15;100.00
21960;BME280;11144;43.030;25.108;2023-01-28T01:39:06;98818.28;;;2.26;100.00
21960;BME280;11144;43.030;25.108;2023-01-28T01:40:39;98818.28;;;2.26;100.00
21960;BME280;11144;43.030;25.108;2023-01-28T01:42:13;98820.84;;;2.28;100.00
21960;BME280;11144;43.030;25.108;2023-01-28T01:43:47;98824.28;;;2.30;100.00
21960;BME280;11144;43.030;25.108;2023-01-28T01:45:21;98819.09;;;2.27;100.00
21960;BME280;11144;43.030;25.108;2023-01-28T01:46:55;98826.13;;;2.23;100.00
21960;BME280;11144;43.030;25.108;2023-01-28T01:48:31;98828.72;;;2.23;100.00
21960;BME280;11144;43.030;25.108;2023-01-28T01:50:13;98824.50;;;2.12;100.00
21960;BME280;11144;43.030;25.108;2023-01-28T01:51:52;98828.91;;;2.07;100.00
21960;BME280;11144;43.030;25.108;2023-01-28T01:53:27;98829.81;;;2.03;100.00
21960;BME280;11144;43.030;25.108;2023-01-28T01:55:08;98836.75;;;2.04;100.00
21960;BME280;11144;43.030;25.108;2023-01-28T01:56:46;98833.28;;;2.05;100.00
21960;BME280;11144;43.030;25.108;2023-01-28T01:58:23;98840.22;;;2.06;100.00
21960;BME280;11144;43.030;25.108;2023-01-28T01:59:57;98842.84;;;2.03;100.00
21960;BME280;11144;43.030;25.108;2023-01-28T02:01:46;98836.75;;;2.04;100.00
21960;BME280;11144;43.030;25.108;2023-01-28T02:03:26;98832.38;;;2.07;100.00
21960;BME280;11144;43.030;25.108;2023-01-28T02:05:01;98831.47;;;2.10;100.00
21960;BME280;11144;43.030;25.108;2023-01-28T02:06:35;98829.81;;;2.03;100.00
21960;BME280;11144;43.030;25.108;2023-01-28T02:08:10;98838.50;;;2.05;100.00
21960;BME280;11144;43.030;25.108;2023-01-28T02:10:04;98847.16;;;2.07;100.00
21960;BME280;11144;43.030;25.108;2023-01-28T02:11:38;98831.50;;;2.07;100.00
21960;BME280;11144;43.030;25.108;2023-01-28T02:13:12;98839.28;;;2.13;100.00
21960;BME280;11144;43.030;25.108;2023-01-28T02:14:51;98837.47;;;2.19;100.00
21960;BME280;11144;43.030;25.108;2023-01-28T02:16:26;98831.38;;;2.19;100.00
21960;BME280;11144;43.030;25.108;2023-01-28T02:18:00;98841.78;;;2.22;100.00
21960;BME280;11144;43.030;25.108;2023-01-28T02:19:39;98836.53;;;2.25;100.00
21960;BME280;11144;43.030;25.108;2023-01-28T02:23:49;98834.81;;;2.24;100.00
21960;BME280;11144;43.030;25.108;2023-01-28T02:25:34;98831.28;;;2.28;100.00
21960;BME280;11144;43.030;25.108;2023-01-28T02:27:23;98824.38;;;2.24;100.00
21960;BME280;11144;43.030;25.108;2023-01-28T02:29:04;98832.16;;;2.27;100.00
21960;BME280;11144;43.030;25.108;2023-01-28T02:30:50;98833.00;;;2.29;100.00
21960;BME280;11144;43.030;25.108;2023-01-28T02:32:28;98826.06;;;2.28;100.00
21960;BME280;11144;43.030;25.108;2023-01-28T02:34:07;98824.38;;;2.24;100.00
21960;BME280;11144;43.030;25.108;2023-01-28T02:35:47;98829.59;;;2.24;100.00
21960;BME280;11144;43.030;25.108;2023-01-28T02:37:25;98833.06;;;2.23;100.00
21960;BME280;11144;43.030;25.108;2023-01-28T02:39:05;98837.47;;;2.19;100.00
21960;BME280;11144;43.030;25.108;2023-01-28T02:40:45;98838.38;;;2.17;100.00
21960;BME280;11144;43.030;25.108;2023-01-28T02:42:38;98850.63;;;2.09;100.00
21960;BME280;11144;43.030;25.108;2023-01-28T02:44:13;98834.91;;;2.15;100.00
21960;BME280;11144;43.030;25.108;2023-01-28T02:45:47;98843.59;;;2.14;100.00
21960;BME280;11144;43.030;25.108;2023-01-28T02:47:34;98840.09;;;2.18;100.00
21960;BME280;11144;43.030;25.108;2023-01-28T02:49:29;98841.84;;;2.16;100.00
21960;BME280;11144;43.030;25.108;2023-01-28T02:51:09;98845.28;;;2.18;100.00
21960;BME280;11144;43.030;25.108;2023-01-28T02:52:55;98851.41;;;2.17;100.00
21960;BME280;11144;43.030;25.108;2023-01-28T02:54:56;98847.88;;;2.19;100.00
21960;BME280;11144;43.030;25.108;2023-01-28T02:56:39;98848.78;;;2.17;100.00
21960;BME280;11144;43.030;25.108;2023-01-28T02:58:18;98855.72;;;2.18;100.00
21960;BME280;11144;43.030;25.108;2023-01-28T03:00:01;98846.19;;;2.17;100.00
21960;BME280;11144;43.030;25.108;2023-01-28T03:01:40;98852.22;;;2.19;100.00
21960;BME280;11144;43.030;25.108;2023-01-28T03:03:17;98851.38;;;2.20;100.00
21960;BME280;11144;43.030;25.108;2023-01-28T03:04:56;98853.91;;;2.23;100.00
21960;BME280;11144;43.030;25.108;2023-01-28T03:06:34;98853.91;;;2.23;100.00
21960;BME280;11144;43.030;25.108;2023-01-28T03:08:10;98858.28;;;2.24;100.00
21960;BME280;11144;43.030;25.108;2023-01-28T03:10:01;98853.06;;;2.25;100.00
21960;BME280;11144;43.030;25.108;2023-01-28T03:11:39;98849.56;;;2.26;100.00
21960;BME280;11144;43.030;25.108;2023-01-28T03:13:31;98860.81;;;2.27;100.00
21960;BME280;11144;43.030;25.108;2023-01-28T03:15:25;98855.63;;;2.27;100.00
21960;BME280;11144;43.030;25.108;2023-01-28T03:17:21;98865.25;;;2.20;100.00
21960;BME280;11144;43.030;25.108;2023-01-28T03:19:16;98865.38;;;2.10;100.00
21960;BME280;11144;43.030;25.108;2023-01-28T03:21:09;98850.66;;;2.06;100.00
21960;BME280;11144;43.030;25.108;2023-01-28T03:23:08;98868.88;;;2.06;100.00
21960;BME280;11144;43.030;25.108;2023-01-28T03:25:02;98859.38;;;2.02;100.00
21960;BME280;11144;43.030;25.108;2023-01-28T03:26:59;98859.34;;;2.05;100.00
21960;BME280;11144;43.030;25.108;2023-01-28T03:29:05;98864.59;;;2.02;100.00
21960;BME280;11144;43.030;25.108;2023-01-28T03:31:04;98867.22;;;2.00;100.00
21960;BME280;11144;43.030;25.108;2023-01-28T03:32:59;98864.56;;;2.05;100.00
21960;BME280;11144;43.030;25.108;2023-01-28T03:34:51;98866.34;;;1.97;100.00
21960;BME280;11144;43.030;25.108;2023-01-28T03:36:43;98858.47;;;2.03;100.00
21960;BME280;11144;43.030;25.108;2023-01-28T03:38:40;98870.63;;;2.04;100.00
21960;BME280;11144;43.030;25.108;2023-01-28T03:40:17;98868.91;;;2.04;100.00
21960;BME280;11144;43.030;25.108;2023-01-28T03:41:56;98871.47;;;2.07;100.00
21960;BME280;11144;43.030;25.108;2023-01-28T03:43:29;98877.53;;;2.09;100.00
21960;BME280;11144;43.030;25.108;2023-01-28T03:45:04;98869.72;;;2.08;100.00
21960;BME280;11144;43.030;25.108;2023-01-28T03:46:39;98882.81;;;2.03;100.00
21960;BME280;11144;43.030;25.108;2023-01-28T03:48:13;98877.66;;;1.97;100.00
21960;BME280;11144;43.030;25.108;2023-01-28T03:49:48;98883.75;;;1.98;100.00
21960;BME280;11144;43.030;25.108;2023-01-28T03:51:23;98883.78;;;1.92;100.00
21960;BME280;11144;43.030;25.108;2023-01-28T03:52:57;98888.19;;;1.88;100.00
21960;BME280;11144;43.030;25.108;2023-01-28T03:54:51;98890.78;;;1.87;100.00
21960;BME280;11144;43.030;25.108;2023-01-28T03:56:24;98898.63;;;1.82;100.00
21960;BME280;11144;43.030;25.108;2023-01-28T03:57:59;98893.44;;;1.81;100.00
21960;BME280;11144;43.030;25.108;2023-01-28T03:59:32;98896.91;;;1.81;100.00
21960;BME280;11144;43.030;25.108;2023-01-28T04:01:06;98897.75;;;1.82;100.00
21960;BME280;11144;43.030;25.108;2023-01-28T04:02:41;98898.66;;;1.79;100.00
21960;BME280;11144;43.030;25.108;2023-01-28T04:04:24;98904.75;;;1.80;100.00
21960;BME280;11144;43.030;25.108;2023-01-28T04:06:01;98909.06;;;1.82;100.00
21960;BME280;11144;43.030;25.108;2023-01-28T04:08:04;98902.94;;;1.85;100.00
21960;BME280;11144;43.030;25.108;2023-01-28T04:09:56;98905.63;;;1.77;100.00
21960;BME280;11144;43.030;25.108;2023-01-28T04:11:39;98909.97;;;1.80;100.00
21960;BME280;11144;43.030;25.108;2023-01-28T04:13:13;98912.56;;;1.81;100.00
21960;BME280;11144;43.030;25.108;2023-01-28T04:14:47;98913.41;;;1.82;100.00
21960;BME280;11144;43.030;25.108;2023-01-28T04:16:28;98911.66;;;1.84;100.00
21960;BME280;11144;43.030;25.108;2023-01-28T04:18:03;98918.59;;;1.82;100.00
21960;BME280;11144;43.030;25.108;2023-01-28T04:19:38;98916.88;;;1.82;100.00
21960;BME280;11144;43.030;25.108;2023-01-28T04:21:12;98922.09;;;1.81;100.00
21960;BME280;11144;43.030;25.108;2023-01-28T04:22:44;98916.06;;;1.77;100.00
21960;BME280;11144;43.030;25.108;2023-01-28T04:24:19;98923.84;;;1.79;100.00
21960;BME280;11144;43.030;25.108;2023-01-28T04:25:53;98925.59;;;1.80;100.00
21960;BME280;11144;43.030;25.108;2023-01-28T04:27:26;98920.34;;;1.83;100.00
21960;BME280;11144;43.030;25.108;2023-01-28T04:29:03;98925.53;;;1.86;100.00
21960;BME280;11144;43.030;25.108;2023-01-28T04:30:38;98921.19;;;1.86;100.00
21960;BME280;11144;43.030;25.108;2023-01-28T04:32:10;98929.00;;;1.85;100.00
21960;BME280;11144;43.030;25.108;2023-01-28T04:34:04;98931.59;;;1.86;100.00
21960;BME280;11144;43.030;25.108;2023-01-28T04:35:52;98934.19;;;1.91;100.00
21960;BME280;11144;43.030;25.108;2023-01-28T04:37:57;98934.13;;;1.97;100.00
21960;BME280;11144;43.030;25.108;2023-01-28T04:39:39;98942.81;;;1.96;100.00
21960;BME280;11144;43.030;25.108;2023-01-28T04:41:24;98938.50;;;1.95;100.00
21960;BME280;11144;43.030;25.108;2023-01-28T04:43:01;98941.09;;;1.95;100.00
21960;BME280;11144;43.030;25.108;2023-01-28T04:44:59;98944.59;;;1.91;100.00
21960;BME280;11144;43.030;25.108;2023-01-28T04:47:01;98942.84;;;1.90;100.00
21960;BME280;11144;43.030;25.108;2023-01-28T04:48:45;98951.56;;;1.90;100.00
21960;BME280;11144;43.030;25.108;2023-01-28T04:50:25;98951.56;;;1.89;100.00
21960;BME280;11144;43.030;25.108;2023-01-28T04:52:37;98951.63;;;1.83;100.00
21960;BME280;11144;43.030;25.108;2023-01-28T04:54:36;98953.34;;;1.84;100.00
21960;BME280;11144;43.030;25.108;2023-01-28T04:56:10;98955.16;;;1.73;100.00
21960;BME280;11144;43.030;25.108;2023-01-28T04:57:45;98958.66;;;1.72;100.00
21960;BME280;11144;43.030;25.108;2023-01-28T04:59:18;98955.16;;;1.73;100.00
21960;BME280;11144;43.030;25.108;2023-01-28T05:00:55;98951.75;;;1.62;100.00
21960;BME280;11144;43.030;25.108;2023-01-28T05:02:28;98956.97;;;1.65;100.00
21960;BME280;11144;43.030;25.108;2023-01-28T05:04:01;98957.81;;;1.65;100.00
21960;BME280;11144;43.030;25.108;2023-01-28T05:05:41;98959.53;;;1.68;100.00
21960;BME280;11144;43.030;25.108;2023-01-28T05:07:24;98967.34;;;1.68;100.00
21960;BME280;11144;43.030;25.108;2023-01-28T05:08:58;98974.28;;;1.72;100.00
21960;BME280;11144;43.030;25.108;2023-01-28T05:10:31;98969.03;;;1.75;100.00
21960;BME280;11144;43.030;25.108;2023-01-28T05:12:04;98967.28;;;1.75;100.00
21960;BME280;11144;43.030;25.108;2023-01-28T05:13:40;98963.00;;;1.65;100.00
21960;BME280;11144;43.030;25.108;2023-01-28T05:15:17;98972.53;;;1.68;100.00
21960;BME280;11144;43.030;25.108;2023-01-28T05:16:50;98977.75;;;1.71;100.00
21960;BME280;11144;43.030;25.108;2023-01-28T05:18:24;98976.91;;;1.69;100.00
21960;BME280;11144;43.030;25.108;2023-01-28T05:20:18;98976.03;;;1.70;100.00
21960;BME280;11144;43.030;25.108;2023-01-28T05:21:54;98972.53;;;1.68;100.00
21960;BME280;11144;43.030;25.108;2023-01-28T05:23:44;98979.50;;;1.69;100.00
21960;BME280;11144;43.030;25.108;2023-01-28T05:25:18;98969.94;;;1.71;100.00
21960;BME280;11144;43.030;25.108;2023-01-28T05:26:52;98975.13;;;1.74;100.00
21960;BME280;11144;43.030;25.108;2023-01-28T05:28:25;98981.19;;;1.76;100.00
21960;BME280;11144;43.030;25.108;2023-01-28T05:30:01;98981.13;;;1.82;100.00
21960;BME280;11144;43.030;25.108;2023-01-28T05:31:33;98982.91;;;1.83;100.00
21960;BME280;11144;43.030;25.108;2023-01-28T05:33:08;98982.91;;;1.83;100.00
21960;BME280;11144;43.030;25.108;2023-01-28T05:34:41;98984.56;;;1.90;100.00
21960;BME280;11144;43.030;25.108;2023-01-28T05:36:17;98986.31;;;1.91;100.00
21960;BME280;11144;43.030;25.108;2023-01-28T05:37:52;98991.44;;;1.97;100.00
21960;BME280;11144;43.030;25.108;2023-01-28T05:39:26;98995.84;;;1.93;100.00
21960;BME280;11144;43.030;25.108;2023-01-28T05:40:58;98993.22;;;1.95;100.00
21960;BME280;11144;43.030;25.108;2023-01-28T05:42:31;98995.81;;;1.98;100.00
21960;BME280;11144;43.030;25.108;2023-01-28T05:44:25;98996.66;;;2.00;100.00
21960;BME280;11144;43.030;25.108;2023-01-28T05:46:20;99004.47;;;1.97;100.00
21960;BME280;11144;43.030;25.108;2023-01-28T05:48:10;98995.81;;;1.98;100.00
21960;BME280;11144;43.030;25.108;2023-01-28T05:50:02;99003.56;;;2.02;100.00
21960;BME280;11144;43.030;25.108;2023-01-28T05:51:47;99002.72;;;2.02;100.00
21960;BME280;11144;43.030;25.108;2023-01-28T05:53:27;99007.94;;;2.03;100.00
21960;BME280;11144;43.030;25.108;2023-01-28T05:55:01;99015.75;;;2.05;100.00
21960;BME280;11144;43.030;25.108;2023-01-28T05:56:34;99008.78;;;2.05;100.00
21960;BME280;11144;43.030;25.108;2023-01-28T05:58:07;99007.94;;;2.02;100.00
21960;BME280;11144;43.030;25.108;2023-01-28T05:59:41;99002.75;;;2.00;100.00
21960;BME280;11144;43.030;25.108;2023-01-28T06:01:14;99012.28;;;2.00;100.00
21960;BME280;11144;43.030;25.108;2023-01-28T06:02:53;99014.06;;;1.95;100.00
21960;BME280;11144;43.030;25.108;2023-01-28T06:04:27;99018.41;;;1.94;100.00
21960;BME280;11144;43.030;25.108;2023-01-28T06:06:02;99017.56;;;1.94;100.00
21960;BME280;11144;43.030;25.108;2023-01-28T06:07:36;99020.13;;;1.97;100.00
21960;BME280;11144;43.030;25.108;2023-01-28T06:09:12;99023.56;;;2.02;100.00
21960;BME280;11144;43.030;25.108;2023-01-28T06:10:45;99018.38;;;2.00;100.00
21960;BME280;11144;43.030;25.108;2023-01-28T06:12:19;99028.78;;;2.03;100.00
21960;BME280;11144;43.030;25.108;2023-01-28T06:14:10;99027.91;;;2.06;100.00
21960;BME280;11144;43.030;25.108;2023-01-28T06:16:10;99033.03;;;2.12;100.00
21960;BME280;11144;43.030;25.108;2023-01-28T06:18:03;99034.78;;;2.13;100.00
21960;BME280;11144;43.030;25.108;2023-01-28T06:19:38;99037.34;;;2.19;100.00
21960;BME280;11144;43.030;25.108;2023-01-28T06:21:12;99038.22;;;2.19;100.00
21960;BME280;11144;43.030;25.108;2023-01-28T06:22:48;99035.63;;;2.18;100.00
21960;BME280;11144;43.030;25.108;2023-01-28T06:24:23;99039.91;;;2.25;100.00
21960;BME280;11144;43.030;25.108;2023-01-28T06:25:56;99044.19;;;2.33;100.00
21960;BME280;11144;43.030;25.108;2023-01-28T06:27:31;99038.06;;;2.39;100.00
21960;BME280;11144;43.030;25.108;2023-01-28T06:29:04;99045.00;;;2.43;100.00
21960;BME280;11144;43.030;25.108;2023-01-28T06:30:37;99041.50;;;2.44;100.00
21960;BME280;11144;43.030;25.108;2023-01-28T06:32:10;99039.69;;;2.49;100.00
21960;BME280;11144;43.030;25.108;2023-01-28T06:33:44;99053.59;;;2.54;100.00
21960;BME280;11144;43.030;25.108;2023-01-28T06:35:16;99053.59;;;2.54;100.00
21960;BME280;11144;43.030;25.108;2023-01-28T06:36:49;99049.19;;;2.56;100.00
21960;BME280;11144;43.030;25.108;2023-01-28T06:38:24;99050.06;;;2.61;100.00
21960;BME280;11144;43.030;25.108;2023-01-28T06:39:57;99054.34;;;2.66;100.00
21960;BME280;11144;43.030;25.108;2023-01-28T06:41:30;99060.38;;;2.70;100.00
21960;BME280;11144;43.030;25.108;2023-01-28T06:43:04;99062.16;;;2.68;100.00
21960;BME280;11144;43.030;25.108;2023-01-28T06:44:37;99055.97;;;2.78;100.00
21960;BME280;11144;43.030;25.108;2023-01-28T06:46:11;99067.16;;;2.89;100.00
21960;BME280;11144;43.030;25.108;2023-01-28T06:47:44;99063.63;;;2.93;100.00
21960;BME280;11144;43.030;25.108;2023-01-28T06:49:17;99068.06;;;2.88;100.00
21960;BME280;11144;43.030;25.108;2023-01-28T06:50:51;99076.81;;;2.79;100.00
21960;BME280;11144;43.030;25.108;2023-01-28T06:52:24;99074.19;;;2.84;100.00
21960;BME280;11144;43.030;25.108;2023-01-28T06:53:57;99079.28;;;2.93;100.00
21960;BME280;11144;43.030;25.108;2023-01-28T06:55:32;99075.75;;;3.01;100.00
21960;BME280;11144;43.030;25.108;2023-01-28T06:57:05;99076.53;;;3.09;100.00
21960;BME280;11144;43.030;25.108;2023-01-28T06:58:38;99074.72;;;3.16;100.00
21960;BME280;11144;43.030;25.108;2023-01-28T07:00:12;99080.72;;;3.25;100.00
21960;BME280;11144;43.030;25.108;2023-01-28T07:01:47;99079.81;;;3.29;100.00
21960;BME280;11144;43.030;25.108;2023-01-28T07:03:20;99082.41;;;3.31;100.00
21960;BME280;11144;43.030;25.108;2023-01-28T07:04:54;99087.63;;;3.31;100.00
21960;BME280;11144;43.030;25.108;2023-01-28T07:06:27;99077.16;;;3.34;100.00
21960;BME280;11144;43.030;25.108;2023-01-28T07:08:01;99089.31;;;3.35;100.00
21960;BME280;11144;43.030;25.108;2023-01-28T07:09:33;99085.00;;;3.32;100.00
21960;BME280;11144;43.030;25.108;2023-01-28T07:11:08;99082.41;;;3.31;100.00
21960;BME280;11144;43.030;25.108;2023-01-28T07:12:41;99079.00;;;3.23;100.00
21960;BME280;11144;43.030;25.108;2023-01-28T07:14:16;99076.47;;;3.17;100.00
21960;BME280;11144;43.030;25.108;2023-01-28T07:15:49;99089.41;;;3.26;100.00
21960;BME280;11144;43.030;25.108;2023-01-28T07:17:23;99089.38;;;3.29;100.00
21960;BME280;11144;43.030;25.108;2023-01-28T07:18:56;99092.91;;;3.25;100.00
21960;BME280;11144;43.030;25.108;2023-01-28T07:20:29;99090.34;;;3.20;100.00
21960;BME280;11144;43.030;25.108;2023-01-28T07:22:01;99091.22;;;3.18;100.00
21960;BME280;11144;43.030;25.108;2023-01-28T07:23:35;99089.53;;;3.15;100.00
21960;BME280;11144;43.030;25.108;2023-01-28T07:25:11;99090.44;;;3.11;100.00
21960;BME280;11144;43.030;25.108;2023-01-28T07:26:48;99084.44;;;3.05;100.00
21960;BME280;11144;43.030;25.108;2023-01-28T07:28:21;99088.75;;;3.06;100.00
21960;BME280;11144;43.030;25.108;2023-01-28T07:29:54;99094.91;;;3.02;100.00
21960;BME280;11144;43.030;25.108;2023-01-28T07:31:26;99089.66;;;3.02;100.00
21960;BME280;11144;43.030;25.108;2023-01-28T07:32:59;99096.63;;;3.03;100.00
21960;BME280;11144;43.030;25.108;2023-01-28T07:34:33;99098.41;;;3.01;100.00
21960;BME280;11144;43.030;25.108;2023-01-28T07:36:08;99102.75;;;2.99;100.00
21960;BME280;11144;43.030;25.108;2023-01-28T07:37:42;99104.53;;;2.95;100.00
21960;BME280;11144;43.030;25.108;2023-01-28T07:39:14;99095.81;;;2.98;100.00
21960;BME280;11144;43.030;25.108;2023-01-28T07:40:47;99096.66;;;2.97;100.00
21960;BME280;11144;43.030;25.108;2023-01-28T07:42:22;99094.91;;;2.99;100.00
21960;BME280;11144;43.030;25.108;2023-01-28T07:43:56;99088.78;;;3.04;100.00
21960;BME280;11144;43.030;25.108;2023-01-28T07:45:30;99100.88;;;3.11;100.00
21960;BME280;11144;43.030;25.108;2023-01-28T07:47:05;99097.41;;;3.11;100.00
21960;BME280;11144;43.030;25.108;2023-01-28T07:48:38;99100.00;;;3.11;100.00
21960;BME280;11144;43.030;25.108;2023-01-28T07:50:12;99099.97;;;3.14;100.00
21960;BME280;11144;43.030;25.108;2023-01-28T07:51:47;99096.53;;;3.12;100.00
21960;BME280;11144;43.030;25.108;2023-01-28T07:53:21;99098.25;;;3.13;100.00
21960;BME280;11144;43.030;25.108;2023-01-28T07:54:55;99091.25;;;3.15;100.00
21960;BME280;11144;43.030;25.108;2023-01-28T07:56:29;99102.59;;;3.15;100.00
21960;BME280;11144;43.030;25.108;2023-01-28T07:58:05;99104.31;;;3.16;100.00
21960;BME280;11144;43.030;25.108;2023-01-28T07:59:39;99103.34;;;3.25;100.00
21960;BME280;11144;43.030;25.108;2023-01-28T08:01:12;99101.53;;;3.30;100.00
21960;BME280;11144;43.030;25.108;2023-01-28T08:02:46;99098.91;;;3.33;100.00
21960;BME280;11144;43.030;25.108;2023-01-28T08:04:19;99106.69;;;3.39;100.00
21960;BME280;11144;43.030;25.108;2023-01-28T08:05:54;99098.00;;;3.37;100.00
21960;BME280;11144;43.030;25.108;2023-01-28T08:07:28;99102.34;;;3.38;100.00
21960;BME280;11144;43.030;25.108;2023-01-28T08:09:01;99103.28;;;3.31;100.00
21960;BME280;11144;43.030;25.108;2023-01-28T08:10:36;99105.91;;;3.31;100.00
21960;BME280;11144;43.030;25.108;2023-01-28T08:12:10;99102.47;;;3.26;100.00
21960;BME280;11144;43.030;25.108;2023-01-28T08:13:43;99113.81;;;3.22;100.00
21960;BME280;11144;43.030;25.108;2023-01-28T08:15:17;99126.13;;;3.11;100.00
21960;BME280;11144;43.030;25.108;2023-01-28T08:16:49;99123.50;;;3.11;100.00
21960;BME280;11144;43.030;25.108;2023-01-28T08:18:22;99123.50;;;3.12;100.00
21960;BME280;11144;43.030;25.108;2023-01-28T08:19:55;99123.44;;;3.18;100.00
21960;BME280;11144;43.030;25.108;2023-01-28T08:21:29;99118.09;;;3.30;100.00
21960;BME280;11144;43.030;25.108;2023-01-28T08:23:06;99121.50;;;3.37;100.00
21960;BME280;11144;43.030;25.108;2023-01-28T08:24:39;99117.94;;;3.44;100.00
21960;BME280;11144;43.030;25.108;2023-01-28T08:26:13;99127.44;;;3.51;100.00
21960;BME280;11144;43.030;25.108;2023-01-28T08:27:46;99123.19;;;3.42;100.00
21960;BME280;11144;43.030;25.108;2023-01-28T08:29:21;99120.75;;;3.26;100.00
21960;BME280;11144;43.030;25.108;2023-01-28T08:30:54;99121.47;;;3.40;100.00
21960;BME280;11144;43.030;25.108;2023-01-28T08:32:28;99122.38;;;3.37;100.00